Terminal Aerodrome Forecast
Issued by NWS

Home | Current Version | Previous Version | Text Only | Print | Product List | Glossary On
Versions: 1 2 3 4 5 6 7 8 9 10 11 12 13 14 15 16 17 18 19 20 21 22 23 24 25
000
FTUS45 KREV 061121
TAFTRK
TAF
KTRK 061121Z 0612/0712 00000KT P6SM BCFG FEW002
     FM061600 VRB03KT P6SM FEW080
     FM061900 16006KT P6SM FEW080 SCT120
     FM062200 26008KT P6SM VCSH SCT070 BKN120
     FM070200 VRB04KT P6SM SCT080 BKN140
     FM070500 VRB03KT P6SM SCT120 BKN180=

USA.gov is the U.S. government's official web portal to all federal, state and local government web resources and services.